createdAt,value
2019-06-15T00:02:24.183Z,57.30
2019-06-15T00:04:50.278Z,57.30
2019-06-15T00:07:18.772Z,57.20
2019-06-15T00:09:44.734Z,57.30
2019-06-15T00:12:12.995Z,57.20
2019-06-15T00:14:38.973Z,57.20
2019-06-15T00:17:05.019Z,57.20
2019-06-15T00:19:30.991Z,57.10
2019-06-15T00:21:56.965Z,57.10
2019-06-15T00:24:34.608Z,57.10
2019-06-15T00:26:50.829Z,57.10
2019-06-15T00:29:16.801Z,57.00
2019-06-15T00:31:42.748Z,57.00
2019-06-15T00:34:08.822Z,57.00
2019-06-15T00:36:34.781Z,56.90
2019-06-15T00:39:00.840Z,56.90
2019-06-15T00:41:39.572Z,56.90
2019-06-15T00:44:05.622Z,56.90
2019-06-15T00:46:31.672Z,56.90
2019-06-15T00:48:57.633Z,56.90
2019-06-15T00:51:23.575Z,56.90
2019-06-15T00:53:49.556Z,56.90
2019-06-15T00:56:15.616Z,56.90
2019-06-15T00:58:41.660Z,56.80
2019-06-15T01:01:07.613Z,56.90
2019-06-15T01:03:33.574Z,56.80
2019-06-15T01:05:59.629Z,56.90
2019-06-15T01:08:25.596Z,56.80
2019-06-15T01:10:51.534Z,56.80
2019-06-15T01:13:17.481Z,56.70
2019-06-15T01:15:43.463Z,56.70
2019-06-15T01:18:09.414Z,56.90
2019-06-15T01:20:35.383Z,56.70
2019-06-15T01:23:01.419Z,56.70
2019-06-15T01:25:27.382Z,57.30
2019-06-15T01:27:53.457Z,56.80
2019-06-15T01:30:19.521Z,56.70
2019-06-15T01:32:45.588Z,56.80
2019-06-15T01:35:11.626Z,56.60
2019-06-15T01:37:37.578Z,56.80
2019-06-15T01:40:03.517Z,56.70
2019-06-15T01:42:29.462Z,56.60
2019-06-15T01:44:55.413Z,56.60
2019-06-15T01:47:21.356Z,56.60
2019-06-15T01:49:47.338Z,56.60
2019-06-15T01:52:13.377Z,56.60
2019-06-15T01:54:39.330Z,56.60
2019-06-15T01:57:05.272Z,56.70
2019-06-15T01:59:31.253Z,56.60
2019-06-15T02:01:57.200Z,56.60
2019-06-15T02:04:23.152Z,56.60
2019-06-15T02:06:49.134Z,56.60
2019-06-15T02:09:15.201Z,56.60
2019-06-15T02:11:41.142Z,56.60
2019-06-15T02:14:07.128Z,56.70
2019-06-15T02:16:33.224Z,56.60
2019-06-15T02:18:59.211Z,56.60
2019-06-15T02:21:25.177Z,56.60
2019-06-15T02:23:51.144Z,56.50
2019-06-15T02:26:17.099Z,56.50
2019-06-15T02:28:43.062Z,56.50
2019-06-15T02:31:09.030Z,56.50
2019-06-15T02:33:35.166Z,56.60
2019-06-15T02:36:01.241Z,56.50
2019-06-15T02:38:27.288Z,56.50
2019-06-15T02:40:53.328Z,56.50
2019-06-15T02:43:19.275Z,56.50
2019-06-15T02:45:45.229Z,56.10
2019-06-15T02:48:11.285Z,56.50
2019-06-15T02:50:37.218Z,57.20
2019-06-15T02:53:03.177Z,56.50
2019-06-15T02:55:29.120Z,56.50
2019-06-15T02:57:55.075Z,56.50
2019-06-15T03:00:21.044Z,56.50
2019-06-15T03:02:46.997Z,56.50
2019-06-15T03:05:13.000Z,56.50
2019-06-15T03:07:39.133Z,56.50
2019-06-15T03:10:05.088Z,56.50
2019-06-15T03:12:31.044Z,56.50
2019-06-15T03:14:57.110Z,56.50
2019-06-15T03:17:23.073Z,56.50
2019-06-15T03:19:50.001Z,56.50
2019-06-15T03:22:16.060Z,56.60
2019-06-15T03:24:42.025Z,56.60
2019-06-15T03:27:08.012Z,56.50
2019-06-15T03:29:33.952Z,56.50
2019-06-15T03:32:00.044Z,56.50
2019-06-15T03:34:26.014Z,56.50
2019-06-15T03:36:52.006Z,56.50
2019-06-15T03:39:18.034Z,56.50
2019-06-15T03:41:44.008Z,56.40
2019-06-15T03:44:09.953Z,56.50
2019-06-15T03:46:35.931Z,56.50
2019-06-15T03:49:01.915Z,56.50
2019-06-15T03:51:27.877Z,56.50
2019-06-15T03:53:53.824Z,56.50
2019-06-15T03:56:21.937Z,56.50
2019-06-15T03:58:47.693Z,56.50
2019-06-15T04:01:13.746Z,56.40
2019-06-15T04:03:39.820Z,56.50
2019-06-15T04:06:05.890Z,56.50
2019-06-15T04:08:31.959Z,56.50
2019-06-15T04:10:58.005Z,56.90
2019-06-15T04:13:24.064Z,56.40
2019-06-15T04:15:50.034Z,56.40
2019-06-15T04:18:16.011Z,56.40
2019-06-15T04:20:42.080Z,56.50
2019-06-15T04:23:08.094Z,56.40
2019-06-15T04:25:34.088Z,55.90
2019-06-15T04:28:00.136Z,56.50
2019-06-15T04:30:26.109Z,56.40
2019-06-15T04:32:52.169Z,56.40
2019-06-15T04:35:18.155Z,56.50
2019-06-15T04:37:44.205Z,56.50
2019-06-15T04:40:10.162Z,56.40
2019-06-15T04:42:36.200Z,56.50
2019-06-15T04:45:02.276Z,56.40
2019-06-15T04:47:28.335Z,56.50
2019-06-15T04:49:54.299Z,56.50
2019-06-15T04:52:20.256Z,56.40
2019-06-15T04:54:46.231Z,56.40
2019-06-15T04:57:12.473Z,56.40
2019-06-15T04:59:38.511Z,56.40
2019-06-15T05:02:04.510Z,56.40
2019-06-15T05:04:30.573Z,56.40
2019-06-15T05:06:56.543Z,56.40
2019-06-15T05:09:22.511Z,56.40
2019-06-15T05:11:48.485Z,56.40
2019-06-15T05:14:14.442Z,56.40
2019-06-15T05:16:40.444Z,56.40
2019-06-15T05:19:06.679Z,56.50
2019-06-15T05:21:32.733Z,56.40
2019-06-15T05:23:58.697Z,56.40
2019-06-15T05:26:24.661Z,56.50
2019-06-15T05:28:50.695Z,56.50
2019-06-15T05:31:16.650Z,56.50
2019-06-15T05:33:42.625Z,56.50
2019-06-15T05:36:08.595Z,56.60
2019-06-15T05:38:34.538Z,56.80
2019-06-15T05:41:00.603Z,56.90
2019-06-15T05:43:26.584Z,57.00
2019-06-15T05:45:52.642Z,57.00
2019-06-15T05:48:19.259Z,57.10
2019-06-15T05:50:45.333Z,57.30
2019-06-15T05:53:11.360Z,57.30
2019-06-15T05:55:46.965Z,57.40
2019-06-15T05:58:12.973Z,57.40
2019-06-15T06:00:39.016Z,57.40
2019-06-15T06:03:05.105Z,57.40
2019-06-15T06:05:31.141Z,57.50
2019-06-15T06:07:57.084Z,57.70
2019-06-15T06:10:23.111Z,57.70
2019-06-15T06:12:49.151Z,57.70
2019-06-15T06:15:15.115Z,57.80
2019-06-15T06:17:42.380Z,57.70
2019-06-15T06:20:08.645Z,57.70
2019-06-15T06:22:34.729Z,57.70
2019-06-15T06:25:00.783Z,57.60
2019-06-15T06:27:36.158Z,57.50
2019-06-15T06:29:54.589Z,57.50
2019-06-15T06:32:20.645Z,57.40
2019-06-15T06:34:46.716Z,57.40
2019-06-15T06:37:12.810Z,57.90
2019-06-15T06:39:38.841Z,57.30
2019-06-15T06:42:04.801Z,57.30
2019-06-15T06:44:30.763Z,57.30
2019-06-15T06:46:56.717Z,57.30
2019-06-15T06:49:22.786Z,57.10
2019-06-15T06:51:48.927Z,56.90
2019-06-15T06:54:14.899Z,56.80
2019-06-15T06:56:40.945Z,56.80
2019-06-15T06:59:06.908Z,56.70
2019-06-15T07:01:32.920Z,56.70
2019-06-15T07:03:59.009Z,56.60
2019-06-15T07:06:25.127Z,56.60
2019-06-15T07:08:51.078Z,56.50
2019-06-15T07:11:17.016Z,56.50
2019-06-15T07:13:42.987Z,56.40
2019-06-15T07:16:08.935Z,56.30
2019-06-15T07:18:34.972Z,56.20
2019-06-15T07:21:00.922Z,56.20
2019-06-15T07:23:26.886Z,56.20
2019-06-15T07:25:52.850Z,56.10
2019-06-15T07:28:18.804Z,56.20
2019-06-15T07:30:44.779Z,56.20
2019-06-15T07:33:10.734Z,56.10
2019-06-15T07:35:36.692Z,56.20
2019-06-15T07:38:02.618Z,56.10
2019-06-15T07:40:28.590Z,56.10
2019-06-15T07:42:54.631Z,56.10
2019-06-15T07:45:20.617Z,56.00
2019-06-15T07:47:46.668Z,56.00
2019-06-15T07:50:12.755Z,56.00
2019-06-15T07:52:38.761Z,56.00
2019-06-15T07:55:04.727Z,56.10
2019-06-15T07:57:30.738Z,56.00
2019-06-15T07:59:57.070Z,56.00
2019-06-15T08:02:23.122Z,56.00
2019-06-15T08:04:49.110Z,56.00
2019-06-15T08:07:15.073Z,56.00
2019-06-15T08:09:41.030Z,55.90
2019-06-15T08:12:06.980Z,55.70
2019-06-15T08:14:32.936Z,55.90
2019-06-15T08:16:58.895Z,55.90
2019-06-15T08:19:24.965Z,55.80
2019-06-15T08:21:51.049Z,55.90
2019-06-15T08:24:17.091Z,55.90
2019-06-15T08:26:43.054Z,55.90
2019-06-15T08:29:08.994Z,55.90
2019-06-15T08:31:35.058Z,55.90
2019-06-15T08:34:01.099Z,56.30
2019-06-15T08:36:27.038Z,55.90
2019-06-15T08:38:53.114Z,55.80
2019-06-15T08:41:19.081Z,55.50
2019-06-15T08:43:45.036Z,55.80
2019-06-15T08:46:10.981Z,55.80
2019-06-15T08:48:36.969Z,55.90
2019-06-15T08:51:03.038Z,55.80
2019-06-15T08:53:29.111Z,55.90
2019-06-15T08:55:55.168Z,55.90
2019-06-15T08:58:21.138Z,55.80
2019-06-15T09:00:47.196Z,56.30
2019-06-15T09:03:13.255Z,55.90
2019-06-15T09:05:39.225Z,55.80
2019-06-15T09:08:05.194Z,55.80
2019-06-15T09:10:31.240Z,55.70
2019-06-15T09:12:57.316Z,55.80
2019-06-15T09:15:23.269Z,55.70
2019-06-15T09:17:49.351Z,55.80
2019-06-15T09:20:15.410Z,55.70
2019-06-15T09:22:41.357Z,55.70
2019-06-15T09:25:07.308Z,55.70
2019-06-15T09:27:33.288Z,55.60
2019-06-15T09:29:59.535Z,55.60
2019-06-15T09:32:25.612Z,55.60
2019-06-15T09:34:51.624Z,55.60
2019-06-15T09:37:17.600Z,55.50
2019-06-15T09:39:43.646Z,55.60
2019-06-15T09:42:09.659Z,55.90
2019-06-15T09:44:35.682Z,55.50
2019-06-15T09:47:01.670Z,55.50
2019-06-15T09:49:29.170Z,55.60
2019-06-15T09:51:55.221Z,55.60
2019-06-15T09:54:21.176Z,55.50
2019-06-15T09:56:47.155Z,55.60
2019-06-15T09:59:25.271Z,55.60
2019-06-15T10:01:43.948Z,55.50
2019-06-15T10:04:10.029Z,55.50
2019-06-15T10:06:35.990Z,55.60
2019-06-15T10:09:02.149Z,55.60
2019-06-15T10:11:28.202Z,55.50
2019-06-15T10:13:54.176Z,55.50
2019-06-15T10:16:20.133Z,55.50
2019-06-15T10:18:48.019Z,55.50
2019-06-15T10:21:14.051Z,55.50
2019-06-15T10:23:40.141Z,55.50
2019-06-15T10:26:06.086Z,55.40
2019-06-15T10:28:32.045Z,55.40
2019-06-15T10:31:00.732Z,55.40
2019-06-15T10:33:25.840Z,55.50
2019-06-15T10:35:51.811Z,55.50
2019-06-15T10:38:17.750Z,55.50
2019-06-15T10:40:43.713Z,55.40
2019-06-15T10:43:09.692Z,55.40
2019-06-15T10:45:35.759Z,55.50
2019-06-15T10:48:01.743Z,55.50
2019-06-15T10:50:27.782Z,55.50
2019-06-15T10:52:53.744Z,55.40
2019-06-15T10:55:19.703Z,55.40
2019-06-15T10:57:45.663Z,55.40
2019-06-15T11:00:11.612Z,55.40
2019-06-15T11:02:37.589Z,55.30
2019-06-15T11:05:03.550Z,55.40
2019-06-15T11:07:29.493Z,56.00
2019-06-15T11:09:55.441Z,55.40
2019-06-15T11:12:21.407Z,55.30
2019-06-15T11:14:47.394Z,55.30
2019-06-15T11:17:13.472Z,55.30
2019-06-15T11:19:39.507Z,55.40
2019-06-15T11:22:05.483Z,55.40
2019-06-15T11:24:31.563Z,55.30
2019-06-15T11:26:57.617Z,55.30
2019-06-15T11:29:23.565Z,55.30
2019-06-15T11:31:49.560Z,55.30
2019-06-15T11:34:15.618Z,55.30
2019-06-15T11:36:42.056Z,55.30
2019-06-15T11:39:08.083Z,55.20
2019-06-15T11:41:34.127Z,55.30
2019-06-15T11:44:00.110Z,55.20
2019-06-15T11:46:26.070Z,55.30
2019-06-15T11:48:52.050Z,55.20
2019-06-15T11:51:18.136Z,55.30
2019-06-15T11:53:44.167Z,55.20
2019-06-15T11:56:10.151Z,55.20
2019-06-15T11:58:36.194Z,55.30
2019-06-15T12:01:02.443Z,55.30
2019-06-15T12:03:28.476Z,55.20
2019-06-15T12:05:54.551Z,55.30
2019-06-15T12:08:20.532Z,55.30
2019-06-15T12:10:46.488Z,55.30
2019-06-15T12:13:13.719Z,55.20
2019-06-15T12:15:39.681Z,55.30
2019-06-15T12:18:05.611Z,55.20
2019-06-15T12:20:31.724Z,55.20
2019-06-15T12:22:57.745Z,55.20
2019-06-15T12:25:23.697Z,55.30
2019-06-15T12:27:49.684Z,55.20
2019-06-15T12:30:15.647Z,55.20
2019-06-15T12:32:41.638Z,55.20
2019-06-15T12:35:07.713Z,55.20
2019-06-15T12:37:33.781Z,55.20
2019-06-15T12:39:59.865Z,55.10
2019-06-15T12:42:25.922Z,55.20
2019-06-15T12:44:51.884Z,55.20
2019-06-15T12:47:17.913Z,55.10
2019-06-15T12:49:43.882Z,55.10
2019-06-15T12:52:09.887Z,55.10
2019-06-15T12:54:35.950Z,55.10
2019-06-15T12:57:01.965Z,55.10
2019-06-15T12:59:28.069Z,55.10
2019-06-15T13:01:54.117Z,55.10
2019-06-15T13:04:20.120Z,55.70
2019-06-15T13:06:46.298Z,55.10
2019-06-15T13:09:12.288Z,55.10
2019-06-15T13:11:38.307Z,55.10
2019-06-15T13:14:04.368Z,55.10
2019-06-15T13:16:38.993Z,55.10
2019-06-15T13:18:58.449Z,55.10
2019-06-15T13:21:24.497Z,55.00
2019-06-15T13:23:50.450Z,55.00
2019-06-15T13:26:16.423Z,55.10
2019-06-15T13:28:42.409Z,55.10
2019-06-15T13:31:17.666Z,55.10
2019-06-15T13:33:36.295Z,55.10
2019-06-15T13:36:02.264Z,55.00
2019-06-15T13:38:28.315Z,55.00
2019-06-15T13:40:54.299Z,55.10
2019-06-15T13:43:20.377Z,54.90
2019-06-15T13:45:46.349Z,55.00
2019-06-15T13:48:12.454Z,54.90
2019-06-15T13:50:38.489Z,55.00
2019-06-15T13:53:04.452Z,55.00
2019-06-15T13:55:30.414Z,55.10
2019-06-15T13:57:56.383Z,55.00
2019-06-15T14:00:22.359Z,55.10
2019-06-15T14:02:48.326Z,55.10
2019-06-15T14:05:14.334Z,55.10
2019-06-15T14:07:40.408Z,55.00
2019-06-15T14:10:06.389Z,55.00
2019-06-15T14:12:32.533Z,54.90
2019-06-15T14:14:58.537Z,55.00
2019-06-15T14:17:24.590Z,55.00
2019-06-15T14:19:50.725Z,55.00
2019-06-15T14:22:16.746Z,55.00
2019-06-15T14:24:42.725Z,54.90
2019-06-15T14:27:08.809Z,55.00
2019-06-15T14:29:34.790Z,55.00
2019-06-15T14:32:00.779Z,55.00
2019-06-15T14:34:26.799Z,55.10
2019-06-15T14:36:52.775Z,55.00
2019-06-15T14:39:18.831Z,55.00
2019-06-15T14:41:48.529Z,55.00
2019-06-15T14:44:12.789Z,55.00
2019-06-15T14:46:38.735Z,55.00
2019-06-15T14:49:04.711Z,55.00
2019-06-15T14:51:30.683Z,54.90
2019-06-15T14:53:58.987Z,54.90
2019-06-15T14:56:24.518Z,55.00
2019-06-15T14:58:50.577Z,55.00
2019-06-15T15:01:16.818Z,54.90
2019-06-15T15:03:43.014Z,55.00
2019-06-15T15:06:09.078Z,55.00
2019-06-15T15:08:36.749Z,55.00
2019-06-15T15:11:03.670Z,55.00
2019-06-15T15:13:29.696Z,55.00
2019-06-15T15:15:57.002Z,55.00
2019-06-15T15:18:23.179Z,55.00
2019-06-15T15:20:49.238Z,55.00
2019-06-15T15:23:15.195Z,54.90
2019-06-15T15:25:41.169Z,55.00
2019-06-15T15:28:07.481Z,54.90
2019-06-15T15:30:36.224Z,55.00
2019-06-15T15:33:01.443Z,55.00
2019-06-15T15:35:27.393Z,55.00
2019-06-15T15:37:53.337Z,55.00
2019-06-15T15:40:19.324Z,55.00
2019-06-15T15:42:45.398Z,54.90
2019-06-15T15:45:11.396Z,55.00
2019-06-15T15:47:37.353Z,55.00
2019-06-15T15:50:03.409Z,54.90
2019-06-15T15:52:29.495Z,55.00
2019-06-15T15:54:56.554Z,55.00
2019-06-15T15:57:22.758Z,54.90
2019-06-15T15:59:48.707Z,54.90
2019-06-15T16:02:16.075Z,54.30
2019-06-15T16:04:42.267Z,54.90
2019-06-15T16:07:08.220Z,54.90
2019-06-15T16:09:36.065Z,54.90
2019-06-15T16:12:02.067Z,54.90
2019-06-15T16:14:28.151Z,54.90
2019-06-15T16:16:55.962Z,54.90
2019-06-15T16:19:22.115Z,54.90
2019-06-15T16:21:48.148Z,54.90
2019-06-15T16:24:16.472Z,54.90
2019-06-15T16:26:41.973Z,54.90
2019-06-15T16:29:08.066Z,54.90
2019-06-15T16:31:34.103Z,54.90
2019-06-15T16:34:00.069Z,54.80
2019-06-15T16:36:26.022Z,54.80
2019-06-15T16:38:51.958Z,54.80
2019-06-15T16:41:17.926Z,54.80
2019-06-15T16:43:45.974Z,54.80
2019-06-15T16:46:11.763Z,54.80
2019-06-15T16:48:37.720Z,54.80
2019-06-15T16:51:06.547Z,54.80
2019-06-15T16:53:31.543Z,54.80
2019-06-15T16:55:57.492Z,54.80
2019-06-15T16:58:23.455Z,54.90
2019-06-15T17:00:49.541Z,54.80
2019-06-15T17:03:22.134Z,54.80
2019-06-15T17:05:43.530Z,54.80
2019-06-15T17:08:09.588Z,54.80
2019-06-15T17:10:35.580Z,54.80
2019-06-15T17:13:01.621Z,54.80
2019-06-15T17:15:27.642Z,54.80
2019-06-15T17:17:56.220Z,54.80
2019-06-15T17:20:21.466Z,54.80
2019-06-15T17:22:48.178Z,54.80
2019-06-15T17:25:16.452Z,54.70
2019-06-15T17:27:41.982Z,54.70
2019-06-15T17:30:07.959Z,54.70
2019-06-15T17:32:34.022Z,54.70
2019-06-15T17:35:00.678Z,54.80
2019-06-15T17:37:26.747Z,54.80
2019-06-15T17:39:52.960Z,54.70
2019-06-15T17:42:19.048Z,54.80
2019-06-15T17:44:46.211Z,54.70
2019-06-15T17:47:12.497Z,54.80
2019-06-15T17:49:38.582Z,54.70
2019-06-15T17:52:06.617Z,54.70
2019-06-15T17:54:32.524Z,54.70
2019-06-15T17:56:58.512Z,54.70
2019-06-15T17:59:26.627Z,54.70
2019-06-15T18:01:52.453Z,55.00
2019-06-15T18:04:18.505Z,54.80
2019-06-15T18:06:46.787Z,55.30
2019-06-15T18:09:12.388Z,54.70
2019-06-15T18:11:38.365Z,54.70
2019-06-15T18:14:05.997Z,55.30
2019-06-15T18:16:32.363Z,54.70
2019-06-15T18:18:58.453Z,55.30
2019-06-15T18:21:26.693Z,54.70
2019-06-15T18:23:52.286Z,54.70
2019-06-15T18:26:18.258Z,55.30
2019-06-15T18:28:46.732Z,54.60
2019-06-15T18:31:12.159Z,54.60
2019-06-15T18:33:38.097Z,54.70
2019-06-15T18:36:06.167Z,54.70
2019-06-15T18:38:31.899Z,54.70
2019-06-15T18:40:57.947Z,54.70
2019-06-15T18:43:26.014Z,54.60
2019-06-15T18:45:51.767Z,54.60
2019-06-15T18:48:17.721Z,54.70
2019-06-15T18:50:43.676Z,54.60
2019-06-15T18:53:09.638Z,54.70
2019-06-15T18:55:36.387Z,54.70
2019-06-15T18:58:02.646Z,54.60
2019-06-15T19:00:28.596Z,54.70
2019-06-15T19:02:56.003Z,54.60
2019-06-15T19:05:22.102Z,54.60
2019-06-15T19:07:48.183Z,54.70
2019-06-15T19:10:16.448Z,54.60
2019-06-15T19:12:42.089Z,54.60
2019-06-15T19:15:08.059Z,54.60
2019-06-15T19:17:36.832Z,54.70
2019-06-15T19:20:01.904Z,54.70
2019-06-15T19:22:27.854Z,54.60
2019-06-15T19:24:53.808Z,54.70
2019-06-15T19:27:19.769Z,54.70
2019-06-15T19:29:46.553Z,54.60
2019-06-15T19:32:12.731Z,54.70
2019-06-15T19:34:46.569Z,54.60
2019-06-15T19:37:06.850Z,54.60
2019-06-15T19:39:33.040Z,54.60
2019-06-15T19:41:59.124Z,54.60
2019-06-15T19:44:26.771Z,54.60
2019-06-15T19:46:52.936Z,54.70
2019-06-15T19:49:18.911Z,54.60
2019-06-15T19:51:47.085Z,54.70
2019-06-15T19:54:12.788Z,54.70
2019-06-15T19:56:38.849Z,55.30
2019-06-15T19:59:06.869Z,54.60
2019-06-15T20:01:32.678Z,54.60
2019-06-15T20:03:58.650Z,54.70
2019-06-15T20:06:26.020Z,54.60
2019-06-15T20:08:52.171Z,54.60
2019-06-15T20:11:18.113Z,54.70
2019-06-15T20:13:44.091Z,54.60
2019-06-15T20:16:10.170Z,54.60
2019-06-15T20:18:37.510Z,54.70
2019-06-15T20:21:03.786Z,54.70
2019-06-15T20:23:29.845Z,54.70
2019-06-15T20:25:55.947Z,54.20
2019-06-15T20:28:22.004Z,54.60
2019-06-15T20:30:48.503Z,54.60
2019-06-15T20:33:16.616Z,54.60
2019-06-15T20:35:42.520Z,54.60
2019-06-15T20:38:08.491Z,54.60
2019-06-15T20:40:36.571Z,54.60
2019-06-15T20:43:02.351Z,54.70
2019-06-15T20:45:31.419Z,54.70
2019-06-15T20:47:56.196Z,54.70
2019-06-15T20:50:28.129Z,54.60
2019-06-15T20:52:50.153Z,54.60
2019-06-15T20:55:16.345Z,54.60
2019-06-15T20:57:42.454Z,54.70
2019-06-15T21:00:08.418Z,54.60
2019-06-15T21:02:36.169Z,54.70
2019-06-15T21:05:02.238Z,54.80
2019-06-15T21:07:28.184Z,54.60
2019-06-15T21:09:54.134Z,54.60
2019-06-15T21:12:20.147Z,54.60
2019-06-15T21:14:47.086Z,54.60
2019-06-15T21:17:13.274Z,54.60
2019-06-15T21:19:39.331Z,54.70
2019-06-15T21:22:06.259Z,54.60
2019-06-15T21:24:32.719Z,54.70
2019-06-15T21:26:58.768Z,55.30
2019-06-15T21:29:26.416Z,54.60
2019-06-15T21:31:52.578Z,54.60
2019-06-15T21:34:18.557Z,54.60
2019-06-15T21:36:46.055Z,54.60
2019-06-15T21:39:12.195Z,54.60
2019-06-15T21:41:38.158Z,54.60
2019-06-15T21:44:06.168Z,54.60
2019-06-15T21:46:31.949Z,54.60
2019-06-15T21:48:58.004Z,54.70
2019-06-15T21:51:23.955Z,54.60
2019-06-15T21:53:49.939Z,54.60
2019-06-15T21:56:16.167Z,54.70
2019-06-15T21:58:42.249Z,54.60
2019-06-15T22:01:08.220Z,54.60
2019-06-15T22:03:36.648Z,54.60
2019-06-15T22:06:06.469Z,54.60
2019-06-15T22:08:31.616Z,54.60
2019-06-15T22:10:57.676Z,54.60
2019-06-15T22:13:23.725Z,54.60
2019-06-15T22:15:49.712Z,54.60
2019-06-15T22:18:16.469Z,54.70
2019-06-15T22:20:43.825Z,54.70
2019-06-15T22:23:09.807Z,55.40
2019-06-15T22:25:36.064Z,54.60
2019-06-15T22:28:02.228Z,54.60
2019-06-15T22:30:28.287Z,54.80
2019-06-15T22:32:56.236Z,54.60
2019-06-15T22:35:22.123Z,54.60
2019-06-15T22:37:48.081Z,54.60
2019-06-15T22:40:16.361Z,54.60
2019-06-15T22:42:41.912Z,54.60
2019-06-15T22:45:07.862Z,54.60
2019-06-15T22:47:35.933Z,54.60
2019-06-15T22:50:01.679Z,54.60
2019-06-15T22:52:27.717Z,54.60
2019-06-15T22:54:53.722Z,54.60
2019-06-15T22:57:19.801Z,54.60
2019-06-15T22:59:46.252Z,54.60
2019-06-15T23:02:12.427Z,54.60
2019-06-15T23:04:38.385Z,54.70
2019-06-15T23:07:06.791Z,54.70
2019-06-15T23:09:32.253Z,54.60
2019-06-15T23:11:58.287Z,54.70
2019-06-15T23:14:26.156Z,54.60
2019-06-15T23:16:52.108Z,54.60
2019-06-15T23:19:18.147Z,54.60
2019-06-15T23:21:46.328Z,54.60
2019-06-15T23:24:12.505Z,54.60
2019-06-15T23:26:38.531Z,54.70
2019-06-15T23:29:06.741Z,54.60
2019-06-15T23:31:32.378Z,54.70
2019-06-15T23:33:58.426Z,54.60
2019-06-15T23:36:26.923Z,54.70
2019-06-15T23:38:53.157Z,54.70
2019-06-15T23:41:19.151Z,54.70
2019-06-15T23:43:46.408Z,54.70
2019-06-15T23:46:12.584Z,54.60
2019-06-15T23:48:38.548Z,54.60
2019-06-15T23:51:06.133Z,54.60
2019-06-15T23:53:32.351Z,54.70
2019-06-15T23:55:58.457Z,54.60
2019-06-15T23:58:26.307Z,54.60
